sensor_id;sensor_type;location;lat;lon;timestamp;temperature;humidity
71396;DHT22;59888;55.814;37.132;2023-05-14T00:02:22;13.98;35.80
71396;DHT22;59888;55.814;37.132;2023-05-14T00:04:48;13.95;35.34
71396;DHT22;59888;55.814;37.132;2023-05-14T00:07:14;13.90;35.59
71396;DHT22;59888;55.814;37.132;2023-05-14T00:09:41;13.88;36.01
71396;DHT22;59888;55.814;37.132;2023-05-14T00:12:07;13.83;35.43
71396;DHT22;59888;55.814;37.132;2023-05-14T00:14:33;13.80;35.97
71396;DHT22;59888;55.814;37.132;2023-05-14T00:16:59;13.76;35.54
71396;DHT22;59888;55.814;37.132;2023-05-14T00:19:26;13.71;35.74
71396;DHT22;59888;55.814;37.132;2023-05-14T00:21:52;13.67;36.10
71396;DHT22;59888;55.814;37.132;2023-05-14T00:24:18;13.64;36.20
71396;DHT22;59888;55.814;37.132;2023-05-14T00:26:44;13.61;36.09
71396;DHT22;59888;55.814;37.132;2023-05-14T00:29:10;13.59;36.08
71396;DHT22;59888;55.814;37.132;2023-05-14T00:31:36;13.55;35.86
71396;DHT22;59888;55.814;37.132;2023-05-14T00:34:02;13.52;36.30
71396;DHT22;59888;55.814;37.132;2023-05-14T00:36:28;13.50;36.39
71396;DHT22;59888;55.814;37.132;2023-05-14T00:38:54;13.45;36.49
71396;DHT22;59888;55.814;37.132;2023-05-14T00:41:21;13.43;36.42
71396;DHT22;59888;55.814;37.132;2023-05-14T00:43:47;13.41;36.31
71396;DHT22;59888;55.814;37.132;2023-05-14T00:46:14;13.38;36.40
71396;DHT22;59888;55.814;37.132;2023-05-14T00:48:40;13.36;37.44
71396;DHT22;59888;55.814;37.132;2023-05-14T00:51:07;13.29;36.95
71396;DHT22;59888;55.814;37.132;2023-05-14T00:53:34;13.22;36.90
71396;DHT22;59888;55.814;37.132;2023-05-14T00:56:01;13.20;36.82
71396;DHT22;59888;55.814;37.132;2023-05-14T00:58:27;13.16;36.95
71396;DHT22;59888;55.814;37.132;2023-05-14T01:00:54;13.08;37.31
71396;DHT22;59888;55.814;37.132;2023-05-14T01:03:20;13.07;37.30
71396;DHT22;59888;55.814;37.132;2023-05-14T01:05:55;13.05;38.14
71396;DHT22;59888;55.814;37.132;2023-05-14T01:11:11;0.00;39.73
71396;DHT22;59888;55.814;37.132;2023-05-14T01:13:44;12.88;39.64
71396;DHT22;59888;55.814;37.132;2023-05-14T01:16:17;12.87;38.78
71396;DHT22;59888;55.814;37.132;2023-05-14T01:18:45;12.84;38.26
71396;DHT22;59888;55.814;37.132;2023-05-14T01:21:41;12.78;41.95
71396;DHT22;59888;55.814;37.132;2023-05-14T01:24:08;12.75;39.14
71396;DHT22;59888;55.814;37.132;2023-05-14T01:26:35;12.73;38.89
71396;DHT22;59888;55.814;37.132;2023-05-14T01:29:12;12.69;40.86
71396;DHT22;59888;55.814;37.132;2023-05-14T01:31:42;12.65;39.07
71396;DHT22;59888;55.814;37.132;2023-05-14T01:34:10;12.63;39.18
71396;DHT22;59888;55.814;37.132;2023-05-14T01:36:39;12.64;38.88
71396;DHT22;59888;55.814;37.132;2023-05-14T01:39:06;12.60;39.18
71396;DHT22;59888;55.814;37.132;2023-05-14T01:41:36;12.61;38.93
71396;DHT22;59888;55.814;37.132;2023-05-14T01:44:04;12.61;39.37
71396;DHT22;59888;55.814;37.132;2023-05-14T01:46:31;12.60;39.95
71396;DHT22;59888;55.814;37.132;2023-05-14T01:48:58;12.57;39.35
71396;DHT22;59888;55.814;37.132;2023-05-14T01:51:25;12.56;39.73
71396;DHT22;59888;55.814;37.132;2023-05-14T01:53:52;12.57;39.20
71396;DHT22;59888;55.814;37.132;2023-05-14T01:56:19;12.59;39.30
71396;DHT22;59888;55.814;37.132;2023-05-14T01:58:46;12.60;39.62
71396;DHT22;59888;55.814;37.132;2023-05-14T02:01:12;12.61;39.06
71396;DHT22;59888;55.814;37.132;2023-05-14T02:03:38;12.62;39.49
71396;DHT22;59888;55.814;37.132;2023-05-14T02:06:05;12.61;39.56
71396;DHT22;59888;55.814;37.132;2023-05-14T02:08:31;12.60;39.28
71396;DHT22;59888;55.814;37.132;2023-05-14T02:10:56;12.61;39.85
71396;DHT22;59888;55.814;37.132;2023-05-14T02:13:24;12.62;39.25
71396;DHT22;59888;55.814;37.132;2023-05-14T02:15:52;12.63;39.43
71396;DHT22;59888;55.814;37.132;2023-05-14T02:18:18;12.65;40.33
71396;DHT22;59888;55.814;37.132;2023-05-14T02:20:45;12.63;40.10
71396;DHT22;59888;55.814;37.132;2023-05-14T02:23:11;12.65;39.94
71396;DHT22;59888;55.814;37.132;2023-05-14T02:25:37;12.70;39.68
71396;DHT22;59888;55.814;37.132;2023-05-14T02:28:03;12.73;39.91
71396;DHT22;59888;55.814;37.132;2023-05-14T02:30:29;12.77;39.92
71396;DHT22;59888;55.814;37.132;2023-05-14T02:32:56;12.78;40.17
71396;DHT22;59888;55.814;37.132;2023-05-14T02:35:23;12.80;39.96
71396;DHT22;59888;55.814;37.132;2023-05-14T02:37:49;12.82;40.34
71396;DHT22;59888;55.814;37.132;2023-05-14T02:40:15;12.87;40.15
71396;DHT22;59888;55.814;37.132;2023-05-14T02:42:41;12.91;39.89
71396;DHT22;59888;55.814;37.132;2023-05-14T02:45:07;12.97;40.15
71396;DHT22;59888;55.814;37.132;2023-05-14T02:47:33;13.00;40.03
71396;DHT22;59888;55.814;37.132;2023-05-14T02:49:59;13.02;39.60
71396;DHT22;59888;55.814;37.132;2023-05-14T02:52:25;13.08;40.47
71396;DHT22;59888;55.814;37.132;2023-05-14T02:54:51;13.09;39.82
71396;DHT22;59888;55.814;37.132;2023-05-14T02:57:17;13.14;41.37
71396;DHT22;59888;55.814;37.132;2023-05-14T02:59:44;13.16;39.10
71396;DHT22;59888;55.814;37.132;2023-05-14T03:02:10;13.20;40.46
71396;DHT22;59888;55.814;37.132;2023-05-14T03:04:36;13.25;41.52
71396;DHT22;59888;55.814;37.132;2023-05-14T03:07:02;13.27;40.39
71396;DHT22;59888;55.814;37.132;2023-05-14T03:09:29;13.29;41.03
71396;DHT22;59888;55.814;37.132;2023-05-14T03:11:55;13.35;41.03
71396;DHT22;59888;55.814;37.132;2023-05-14T03:14:21;13.43;40.01
71396;DHT22;59888;55.814;37.132;2023-05-14T03:16:48;13.53;40.49
71396;DHT22;59888;55.814;37.132;2023-05-14T03:19:14;13.60;40.46
71396;DHT22;59888;55.814;37.132;2023-05-14T03:21:40;13.64;42.40
71396;DHT22;59888;55.814;37.132;2023-05-14T03:24:06;13.73;39.72
71396;DHT22;59888;55.814;37.132;2023-05-14T03:26:32;13.83;39.96
71396;DHT22;59888;55.814;37.132;2023-05-14T03:28:58;13.91;40.92
71396;DHT22;59888;55.814;37.132;2023-05-14T03:31:25;13.98;39.65
71396;DHT22;59888;55.814;37.132;2023-05-14T03:33:51;14.07;40.90
71396;DHT22;59888;55.814;37.132;2023-05-14T03:36:17;14.14;39.20
71396;DHT22;59888;55.814;37.132;2023-05-14T03:38:43;14.22;40.87
71396;DHT22;59888;55.814;37.132;2023-05-14T03:41:09;14.33;39.02
71396;DHT22;59888;55.814;37.132;2023-05-14T03:43:35;14.47;38.78
71396;DHT22;59888;55.814;37.132;2023-05-14T03:46:01;14.56;38.59
71396;DHT22;59888;55.814;37.132;2023-05-14T03:48:27;14.66;38.85
71396;DHT22;59888;55.814;37.132;2023-05-14T03:50:53;14.73;38.17
71396;DHT22;59888;55.814;37.132;2023-05-14T03:53:19;14.79;38.22
71396;DHT22;59888;55.814;37.132;2023-05-14T03:55:46;14.84;38.08
71396;DHT22;59888;55.814;37.132;2023-05-14T03:58:12;14.93;37.91
71396;DHT22;59888;55.814;37.132;2023-05-14T04:00:42;14.99;38.38
71396;DHT22;59888;55.814;37.132;2023-05-14T04:03:10;15.10;37.68
71396;DHT22;59888;55.814;37.132;2023-05-14T04:05:36;15.19;37.66
71396;DHT22;59888;55.814;37.132;2023-05-14T04:08:02;15.30;37.45
71396;DHT22;59888;55.814;37.132;2023-05-14T04:10:29;15.40;37.72
71396;DHT22;59888;55.814;37.132;2023-05-14T04:12:58;15.47;37.72
71396;DHT22;59888;55.814;37.132;2023-05-14T04:15:30;15.58;37.04
71396;DHT22;59888;55.814;37.132;2023-05-14T04:17:56;15.67;36.75
71396;DHT22;59888;55.814;37.132;2023-05-14T04:20:22;15.76;36.76
71396;DHT22;59888;55.814;37.132;2023-05-14T04:22:49;15.81;36.55
71396;DHT22;59888;55.814;37.132;2023-05-14T04:25:15;15.85;37.30
71396;DHT22;59888;55.814;37.132;2023-05-14T04:27:43;15.90;36.15
71396;DHT22;59888;55.814;37.132;2023-05-14T04:30:09;15.99;36.47
71396;DHT22;59888;55.814;37.132;2023-05-14T04:32:35;16.05;37.17
71396;DHT22;59888;55.814;37.132;2023-05-14T04:35:01;16.11;36.82
71396;DHT22;59888;55.814;37.132;2023-05-14T04:37:30;16.24;35.34
71396;DHT22;59888;55.814;37.132;2023-05-14T04:39:56;16.37;35.17
71396;DHT22;59888;55.814;37.132;2023-05-14T04:42:22;16.43;35.69
71396;DHT22;59888;55.814;37.132;2023-05-14T04:44:47;16.50;35.50
71396;DHT22;59888;55.814;37.132;2023-05-14T04:47:13;16.54;35.25
71396;DHT22;59888;55.814;37.132;2023-05-14T04:49:39;16.57;35.47
71396;DHT22;59888;55.814;37.132;2023-05-14T04:52:05;16.58;35.70
71396;DHT22;59888;55.814;37.132;2023-05-14T04:54:31;16.64;34.96
71396;DHT22;59888;55.814;37.132;2023-05-14T04:56:57;16.75;34.84
71396;DHT22;59888;55.814;37.132;2023-05-14T04:59:29;16.84;35.00
71396;DHT22;59888;55.814;37.132;2023-05-14T05:01:55;16.86;34.76
71396;DHT22;59888;55.814;37.132;2023-05-14T05:04:21;16.96;35.17
71396;DHT22;59888;55.814;37.132;2023-05-14T05:06:49;17.07;34.77
71396;DHT22;59888;55.814;37.132;2023-05-14T05:09:16;17.15;34.37
71396;DHT22;59888;55.814;37.132;2023-05-14T05:11:42;17.19;34.58
71396;DHT22;59888;55.814;37.132;2023-05-14T05:14:08;17.24;34.14
71396;DHT22;59888;55.814;37.132;2023-05-14T05:16:34;17.28;34.82
71396;DHT22;59888;55.814;37.132;2023-05-14T05:19:00;17.28;35.68
71396;DHT22;59888;55.814;37.132;2023-05-14T05:21:27;17.36;34.47
71396;DHT22;59888;55.814;37.132;2023-05-14T05:23:53;17.43;34.11
71396;DHT22;59888;55.814;37.132;2023-05-14T05:26:19;17.59;34.09
71396;DHT22;59888;55.814;37.132;2023-05-14T05:28:47;17.69;33.98
71396;DHT22;59888;55.814;37.132;2023-05-14T05:31:15;17.85;33.92
71396;DHT22;59888;55.814;37.132;2023-05-14T05:33:41;18.03;33.67
71396;DHT22;59888;55.814;37.132;2023-05-14T05:36:07;18.13;32.95
71396;DHT22;59888;55.814;37.132;2023-05-14T05:38:33;18.26;32.95
71396;DHT22;59888;55.814;37.132;2023-05-14T05:40:59;18.37;32.60
71396;DHT22;59888;55.814;37.132;2023-05-14T05:43:25;18.42;32.45
71396;DHT22;59888;55.814;37.132;2023-05-14T05:45:51;18.52;33.20
71396;DHT22;59888;55.814;37.132;2023-05-14T05:48:16;18.59;32.32
71396;DHT22;59888;55.814;37.132;2023-05-14T05:50:45;18.65;32.42
71396;DHT22;59888;55.814;37.132;2023-05-14T05:53:12;18.68;32.08
71396;DHT22;59888;55.814;37.132;2023-05-14T05:55:38;18.72;31.77
71396;DHT22;59888;55.814;37.132;2023-05-14T05:58:04;18.77;31.75
71396;DHT22;59888;55.814;37.132;2023-05-14T06:00:30;18.91;31.75
71396;DHT22;59888;55.814;37.132;2023-05-14T06:02:56;19.02;31.37
71396;DHT22;59888;55.814;37.132;2023-05-14T06:05:22;19.07;31.11
71396;DHT22;59888;55.814;37.132;2023-05-14T06:07:48;19.15;31.13
71396;DHT22;59888;55.814;37.132;2023-05-14T06:10:14;19.22;30.91
71396;DHT22;59888;55.814;37.132;2023-05-14T06:12:40;19.36;30.67
71396;DHT22;59888;55.814;37.132;2023-05-14T06:15:06;19.43;30.64
71396;DHT22;59888;55.814;37.132;2023-05-14T06:17:33;19.42;30.35
71396;DHT22;59888;55.814;37.132;2023-05-14T06:19:59;19.48;30.46
71396;DHT22;59888;55.814;37.132;2023-05-14T06:22:25;19.58;30.13
71396;DHT22;59888;55.814;37.132;2023-05-14T06:24:50;19.59;30.15
71396;DHT22;59888;55.814;37.132;2023-05-14T06:27:16;19.69;30.18
71396;DHT22;59888;55.814;37.132;2023-05-14T06:29:42;19.81;29.66
71396;DHT22;59888;55.814;37.132;2023-05-14T06:32:08;19.88;29.51
71396;DHT22;59888;55.814;37.132;2023-05-14T06:34:35;20.00;29.09
71396;DHT22;59888;55.814;37.132;2023-05-14T06:37:00;20.01;29.10
71396;DHT22;59888;55.814;37.132;2023-05-14T06:39:28;20.11;28.87
71396;DHT22;59888;55.814;37.132;2023-05-14T06:41:55;20.18;29.04
71396;DHT22;59888;55.814;37.132;2023-05-14T06:44:22;20.24;28.73
71396;DHT22;59888;55.814;37.132;2023-05-14T06:46:48;20.11;28.60
71396;DHT22;59888;55.814;37.132;2023-05-14T06:49:14;20.10;28.66
71396;DHT22;59888;55.814;37.132;2023-05-14T06:51:40;20.22;28.51
71396;DHT22;59888;55.814;37.132;2023-05-14T06:54:06;20.33;28.22
71396;DHT22;59888;55.814;37.132;2023-05-14T06:56:33;20.57;28.03
71396;DHT22;59888;55.814;37.132;2023-05-14T06:58:59;20.86;27.48
71396;DHT22;59888;55.814;37.132;2023-05-14T07:01:25;20.98;27.27
71396;DHT22;59888;55.814;37.132;2023-05-14T07:03:51;20.89;27.06
71396;DHT22;59888;55.814;37.132;2023-05-14T07:06:17;20.77;27.29
71396;DHT22;59888;55.814;37.132;2023-05-14T07:08:43;20.64;27.65
71396;DHT22;59888;55.814;37.132;2023-05-14T07:11:12;20.48;27.62
71396;DHT22;59888;55.814;37.132;2023-05-14T07:13:38;20.42;27.56
71396;DHT22;59888;55.814;37.132;2023-05-14T07:16:05;20.45;27.60
71396;DHT22;59888;55.814;37.132;2023-05-14T07:18:32;20.51;27.46
71396;DHT22;59888;55.814;37.132;2023-05-14T07:20:57;20.61;27.33
71396;DHT22;59888;55.814;37.132;2023-05-14T07:23:23;20.49;27.15
71396;DHT22;59888;55.814;37.132;2023-05-14T07:25:49;20.32;27.23
71396;DHT22;59888;55.814;37.132;2023-05-14T07:28:15;20.30;27.44
71396;DHT22;59888;55.814;37.132;2023-05-14T07:30:41;20.15;27.51
71396;DHT22;59888;55.814;37.132;2023-05-14T07:33:07;20.05;27.61
71396;DHT22;59888;55.814;37.132;2023-05-14T07:35:33;19.95;27.72
71396;DHT22;59888;55.814;37.132;2023-05-14T07:37:59;19.85;28.00
71396;DHT22;59888;55.814;37.132;2023-05-14T07:40:25;19.83;27.78
71396;DHT22;59888;55.814;37.132;2023-05-14T07:42:51;19.76;27.81
71396;DHT22;59888;55.814;37.132;2023-05-14T07:45:16;19.84;27.99
71396;DHT22;59888;55.814;37.132;2023-05-14T07:47:43;20.00;27.97
71396;DHT22;59888;55.814;37.132;2023-05-14T07:50:09;20.12;27.87
71396;DHT22;59888;55.814;37.132;2023-05-14T07:52:35;20.24;27.33
71396;DHT22;59888;55.814;37.132;2023-05-14T07:55:02;20.22;26.95
71396;DHT22;59888;55.814;37.132;2023-05-14T07:57:31;20.18;26.96
71396;DHT22;59888;55.814;37.132;2023-05-14T07:59:57;20.17;27.28
71396;DHT22;59888;55.814;37.132;2023-05-14T08:02:23;20.24;27.05
71396;DHT22;59888;55.814;37.132;2023-05-14T08:04:48;20.25;27.13
71396;DHT22;59888;55.814;37.132;2023-05-14T08:07:14;20.25;27.24
71396;DHT22;59888;55.814;37.132;2023-05-14T08:09:40;20.31;27.14
71396;DHT22;59888;55.814;37.132;2023-05-14T08:12:06;20.37;27.11
71396;DHT22;59888;55.814;37.132;2023-05-14T08:14:33;20.59;27.12
71396;DHT22;59888;55.814;37.132;2023-05-14T08:16:59;20.89;26.77
71396;DHT22;59888;55.814;37.132;2023-05-14T08:19:25;20.92;26.46
71396;DHT22;59888;55.814;37.132;2023-05-14T08:21:52;20.92;26.50
71396;DHT22;59888;55.814;37.132;2023-05-14T08:24:18;20.92;26.55
71396;DHT22;59888;55.814;37.132;2023-05-14T08:26:44;20.94;26.54
71396;DHT22;59888;55.814;37.132;2023-05-14T08:29:09;20.93;26.36
71396;DHT22;59888;55.814;37.132;2023-05-14T08:31:36;20.92;26.34
71396;DHT22;59888;55.814;37.132;2023-05-14T08:34:02;20.95;26.37
71396;DHT22;59888;55.814;37.132;2023-05-14T08:36:28;21.01;26.07
71396;DHT22;59888;55.814;37.132;2023-05-14T08:38:54;21.04;26.14
71396;DHT22;59888;55.814;37.132;2023-05-14T08:41:20;21.18;25.90
71396;DHT22;59888;55.814;37.132;2023-05-14T08:44:17;21.22;25.75
71396;DHT22;59888;55.814;37.132;2023-05-14T08:46:43;21.31;25.81
71396;DHT22;59888;55.814;37.132;2023-05-14T08:49:24;21.32;25.88
71396;DHT22;59888;55.814;37.132;2023-05-14T08:51:53;21.34;25.62
71396;DHT22;59888;55.814;37.132;2023-05-14T08:54:19;21.47;25.85
71396;DHT22;59888;55.814;37.132;2023-05-14T08:56:50;21.66;25.71
71396;DHT22;59888;55.814;37.132;2023-05-14T08:59:16;21.78;25.51
71396;DHT22;59888;55.814;37.132;2023-05-14T09:01:46;21.88;25.45
71396;DHT22;59888;55.814;37.132;2023-05-14T09:04:19;21.91;25.46
71396;DHT22;59888;55.814;37.132;2023-05-14T09:06:48;21.62;25.91
71396;DHT22;59888;55.814;37.132;2023-05-14T09:09:14;21.47;26.04
71396;DHT22;59888;55.814;37.132;2023-05-14T09:11:41;21.49;26.10
71396;DHT22;59888;55.814;37.132;2023-05-14T09:14:07;21.34;26.35
71396;DHT22;59888;55.814;37.132;2023-05-14T09:16:34;21.13;26.52
71396;DHT22;59888;55.814;37.132;2023-05-14T09:19:03;21.03;26.71
71396;DHT22;59888;55.814;37.132;2023-05-14T09:21:29;20.90;26.71
71396;DHT22;59888;55.814;37.132;2023-05-14T09:23:56;20.86;27.03
71396;DHT22;59888;55.814;37.132;2023-05-14T09:26:24;20.86;27.00
71396;DHT22;59888;55.814;37.132;2023-05-14T09:28:54;20.91;26.88
71396;DHT22;59888;55.814;37.132;2023-05-14T09:31:22;21.03;26.90
71396;DHT22;59888;55.814;37.132;2023-05-14T09:33:51;21.08;26.54
71396;DHT22;59888;55.814;37.132;2023-05-14T09:36:18;21.09;26.35
71396;DHT22;59888;55.814;37.132;2023-05-14T09:38:44;21.14;26.34
71396;DHT22;59888;55.814;37.132;2023-05-14T09:41:10;21.28;26.44
71396;DHT22;59888;55.814;37.132;2023-05-14T09:43:36;21.30;26.34
71396;DHT22;59888;55.814;37.132;2023-05-14T09:46:02;21.33;26.31
71396;DHT22;59888;55.814;37.132;2023-05-14T09:48:28;21.32;26.27
71396;DHT22;59888;55.814;37.132;2023-05-14T09:50:54;21.37;26.28
71396;DHT22;59888;55.814;37.132;2023-05-14T09:53:20;21.24;26.44
71396;DHT22;59888;55.814;37.132;2023-05-14T09:55:46;21.17;26.48
71396;DHT22;59888;55.814;37.132;2023-05-14T09:58:12;21.13;26.35
71396;DHT22;59888;55.814;37.132;2023-05-14T10:00:43;21.09;26.62
71396;DHT22;59888;55.814;37.132;2023-05-14T10:03:12;21.14;26.26
71396;DHT22;59888;55.814;37.132;2023-05-14T10:05:40;21.16;26.32
71396;DHT22;59888;55.814;37.132;2023-05-14T10:08:33;21.14;26.36
71396;DHT22;59888;55.814;37.132;2023-05-14T10:11:11;21.18;26.46
71396;DHT22;59888;55.814;37.132;2023-05-14T10:13:40;21.20;26.60
71396;DHT22;59888;55.814;37.132;2023-05-14T10:16:19;21.14;26.71
71396;DHT22;59888;55.814;37.132;2023-05-14T10:18:49;21.02;27.05
71396;DHT22;59888;55.814;37.132;2023-05-14T10:21:19;20.90;27.27
71396;DHT22;59888;55.814;37.132;2023-05-14T10:23:47;20.77;27.13
71396;DHT22;59888;55.814;37.132;2023-05-14T10:26:14;20.72;27.39
71396;DHT22;59888;55.814;37.132;2023-05-14T10:28:40;20.75;27.35
71396;DHT22;59888;55.814;37.132;2023-05-14T10:31:08;20.79;27.08
71396;DHT22;59888;55.814;37.132;2023-05-14T10:33:48;20.77;27.41
71396;DHT22;59888;55.814;37.132;2023-05-14T10:36:16;20.78;27.16
71396;DHT22;59888;55.814;37.132;2023-05-14T10:38:43;20.85;27.18
71396;DHT22;59888;55.814;37.132;2023-05-14T10:41:11;20.99;27.16
71396;DHT22;59888;55.814;37.132;2023-05-14T10:43:39;21.08;26.98
71396;DHT22;59888;55.814;37.132;2023-05-14T10:46:07;21.03;26.89
71396;DHT22;59888;55.814;37.132;2023-05-14T10:48:35;21.18;26.70
71396;DHT22;59888;55.814;37.132;2023-05-14T10:51:01;21.35;26.52
71396;DHT22;59888;55.814;37.132;2023-05-14T10:53:35;21.45;26.39
71396;DHT22;59888;55.814;37.132;2023-05-14T10:56:10;21.49;26.40
71396;DHT22;59888;55.814;37.132;2023-05-14T10:58:40;21.53;26.19
71396;DHT22;59888;55.814;37.132;2023-05-14T11:01:08;21.66;26.09
71396;DHT22;59888;55.814;37.132;2023-05-14T11:03:40;21.84;25.87
71396;DHT22;59888;55.814;37.132;2023-05-14T11:06:09;22.02;25.55
71396;DHT22;59888;55.814;37.132;2023-05-14T11:08:36;22.21;25.23
71396;DHT22;59888;55.814;37.132;2023-05-14T11:11:03;22.33;25.23
71396;DHT22;59888;55.814;37.132;2023-05-14T11:13:29;22.43;24.89
71396;DHT22;59888;55.814;37.132;2023-05-14T11:15:56;22.47;24.76
71396;DHT22;59888;55.814;37.132;2023-05-14T11:18:30;22.49;24.45
71396;DHT22;59888;55.814;37.132;2023-05-14T11:20:59;22.52;23.78
71396;DHT22;59888;55.814;37.132;2023-05-14T11:23:25;22.49;24.33
71396;DHT22;59888;55.814;37.132;2023-05-14T11:25:52;22.61;24.36
71396;DHT22;59888;55.814;37.132;2023-05-14T11:28:22;22.83;24.37
71396;DHT22;59888;55.814;37.132;2023-05-14T11:30:49;23.05;24.19
71396;DHT22;59888;55.814;37.132;2023-05-14T11:33:16;23.15;24.23
71396;DHT22;59888;55.814;37.132;2023-05-14T11:35:42;23.27;23.98
71396;DHT22;59888;55.814;37.132;2023-05-14T11:38:19;23.18;23.60
71396;DHT22;59888;55.814;37.132;2023-05-14T11:40:57;23.18;23.50
71396;DHT22;59888;55.814;37.132;2023-05-14T11:43:23;23.29;23.50
71396;DHT22;59888;55.814;37.132;2023-05-14T11:45:52;23.27;23.45
71396;DHT22;59888;55.814;37.132;2023-05-14T11:48:22;23.26;23.37
71396;DHT22;59888;55.814;37.132;2023-05-14T11:50:50;23.36;23.24
71396;DHT22;59888;55.814;37.132;2023-05-14T11:53:24;23.36;23.57
71396;DHT22;59888;55.814;37.132;2023-05-14T11:55:51;23.27;23.62
71396;DHT22;59888;55.814;37.132;2023-05-14T11:58:19;23.24;23.59
71396;DHT22;59888;55.814;37.132;2023-05-14T12:00:45;23.16;23.59
71396;DHT22;59888;55.814;37.132;2023-05-14T12:03:14;23.09;23.67
71396;DHT22;59888;55.814;37.132;2023-05-14T12:05:40;23.06;23.57
71396;DHT22;59888;55.814;37.132;2023-05-14T12:08:29;23.02;23.24
71396;DHT22;59888;55.814;37.132;2023-05-14T12:10:59;22.92;22.99
71396;DHT22;59888;55.814;37.132;2023-05-14T12:13:29;22.81;22.95
71396;DHT22;59888;55.814;37.132;2023-05-14T12:15:58;22.83;23.06
71396;DHT22;59888;55.814;37.132;2023-05-14T12:18:26;22.91;22.83
71396;DHT22;59888;55.814;37.132;2023-05-14T12:20:53;22.93;23.18
71396;DHT22;59888;55.814;37.132;2023-05-14T12:23:27;23.06;22.85
71396;DHT22;59888;55.814;37.132;2023-05-14T12:25:54;23.03;22.74
71396;DHT22;59888;55.814;37.132;2023-05-14T12:28:22;22.88;23.08
71396;DHT22;59888;55.814;37.132;2023-05-14T12:30:55;22.83;23.27
71396;DHT22;59888;55.814;37.132;2023-05-14T12:33:21;22.62;23.61
71396;DHT22;59888;55.814;37.132;2023-05-14T12:35:54;22.44;23.72
71396;DHT22;59888;55.814;37.132;2023-05-14T12:38:27;22.35;24.13
71396;DHT22;59888;55.814;37.132;2023-05-14T12:40:53;22.24;24.14
71396;DHT22;59888;55.814;37.132;2023-05-14T12:43:19;22.22;24.11
71396;DHT22;59888;55.814;37.132;2023-05-14T12:45:45;22.23;24.20
71396;DHT22;59888;55.814;37.132;2023-05-14T12:48:11;22.17;24.26
71396;DHT22;59888;55.814;37.132;2023-05-14T12:50:38;22.11;24.27
71396;DHT22;59888;55.814;37.132;2023-05-14T12:53:04;22.27;24.21
71396;DHT22;59888;55.814;37.132;2023-05-14T12:55:30;22.50;24.09
71396;DHT22;59888;55.814;37.132;2023-05-14T12:57:56;22.68;24.06
71396;DHT22;59888;55.814;37.132;2023-05-14T13:00:22;22.72;23.43
71396;DHT22;59888;55.814;37.132;2023-05-14T13:02:48;22.67;23.51
71396;DHT22;59888;55.814;37.132;2023-05-14T13:05:14;22.65;23.67
71396;DHT22;59888;55.814;37.132;2023-05-14T13:07:40;22.70;23.44
71396;DHT22;59888;55.814;37.132;2023-05-14T13:10:07;22.68;23.63
71396;DHT22;59888;55.814;37.132;2023-05-14T13:12:33;22.71;23.66
71396;DHT22;59888;55.814;37.132;2023-05-14T13:14:59;22.62;23.79
71396;DHT22;59888;55.814;37.132;2023-05-14T13:17:25;22.51;23.99
71396;DHT22;59888;55.814;37.132;2023-05-14T13:19:51;22.50;24.14
71396;DHT22;59888;55.814;37.132;2023-05-14T13:22:17;22.54;24.22
71396;DHT22;59888;55.814;37.132;2023-05-14T13:24:43;22.64;24.14
71396;DHT22;59888;55.814;37.132;2023-05-14T13:27:10;22.56;24.07
71396;DHT22;59888;55.814;37.132;2023-05-14T13:29:36;22.53;24.19
71396;DHT22;59888;55.814;37.132;2023-05-14T13:32:02;22.50;24.10
71396;DHT22;59888;55.814;37.132;2023-05-14T13:34:28;22.48;24.13
71396;DHT22;59888;55.814;37.132;2023-05-14T13:36:55;23.15;23.61
71396;DHT22;59888;55.814;37.132;2023-05-14T13:39:21;23.28;23.45
71396;DHT22;59888;55.814;37.132;2023-05-14T13:41:53;23.45;23.33
71396;DHT22;59888;55.814;37.132;2023-05-14T13:44:21;23.44;23.45
71396;DHT22;59888;55.814;37.132;2023-05-14T13:46:47;23.44;23.37
71396;DHT22;59888;55.814;37.132;2023-05-14T13:49:13;23.41;23.43
71396;DHT22;59888;55.814;37.132;2023-05-14T13:51:39;23.35;23.36
71396;DHT22;59888;55.814;37.132;2023-05-14T13:54:05;23.17;23.65
71396;DHT22;59888;55.814;37.132;2023-05-14T13:56:31;23.15;23.70
71396;DHT22;59888;55.814;37.132;2023-05-14T13:58:56;23.23;23.62
71396;DHT22;59888;55.814;37.132;2023-05-14T14:01:22;23.22;23.47
71396;DHT22;59888;55.814;37.132;2023-05-14T14:03:48;23.01;23.49
71396;DHT22;59888;55.814;37.132;2023-05-14T14:06:14;22.75;23.66
71396;DHT22;59888;55.814;37.132;2023-05-14T14:08:40;22.51;23.75
71396;DHT22;59888;55.814;37.132;2023-05-14T14:11:06;22.24;23.98
71396;DHT22;59888;55.814;37.132;2023-05-14T14:13:32;21.96;24.43
71396;DHT22;59888;55.814;37.132;2023-05-14T14:15:58;21.78;24.78
71396;DHT22;59888;55.814;37.132;2023-05-14T14:18:24;21.60;25.14
71396;DHT22;59888;55.814;37.132;2023-05-14T14:20:50;21.47;25.43
71396;DHT22;59888;55.814;37.132;2023-05-14T14:23:16;21.31;25.59
71396;DHT22;59888;55.814;37.132;2023-05-14T14:25:42;21.20;25.62
71396;DHT22;59888;55.814;37.132;2023-05-14T14:28:08;21.01;25.93
71396;DHT22;59888;55.814;37.132;2023-05-14T14:30:34;20.81;26.17
71396;DHT22;59888;55.814;37.132;2023-05-14T14:33:00;20.69;26.36
71396;DHT22;59888;55.814;37.132;2023-05-14T14:35:25;20.60;26.58
71396;DHT22;59888;55.814;37.132;2023-05-14T14:37:51;20.55;26.68
71396;DHT22;59888;55.814;37.132;2023-05-14T14:40:18;20.45;26.73
71396;DHT22;59888;55.814;37.132;2023-05-14T14:42:48;20.45;26.73
71396;DHT22;59888;55.814;37.132;2023-05-14T14:45:14;20.50;26.86
71396;DHT22;59888;55.814;37.132;2023-05-14T14:47:45;20.39;26.91
71396;DHT22;59888;55.814;37.132;2023-05-14T14:50:14;20.37;26.73
71396;DHT22;59888;55.814;37.132;2023-05-14T14:52:42;20.31;26.69
71396;DHT22;59888;55.814;37.132;2023-05-14T14:55:09;20.32;26.65
71396;DHT22;59888;55.814;37.132;2023-05-14T14:57:35;20.35;26.65
71396;DHT22;59888;55.814;37.132;2023-05-14T15:00:01;20.36;26.53
71396;DHT22;59888;55.814;37.132;2023-05-14T15:02:33;20.35;26.56
71396;DHT22;59888;55.814;37.132;2023-05-14T15:04:59;20.39;26.54
71396;DHT22;59888;55.814;37.132;2023-05-14T15:07:25;20.39;26.55
71396;DHT22;59888;55.814;37.132;2023-05-14T15:09:50;20.48;26.70
71396;DHT22;59888;55.814;37.132;2023-05-14T15:12:16;20.56;26.57
71396;DHT22;59888;55.814;37.132;2023-05-14T15:14:42;20.53;26.87
71396;DHT22;59888;55.814;37.132;2023-05-14T15:17:08;20.50;26.97
71396;DHT22;59888;55.814;37.132;2023-05-14T15:19:35;20.45;27.09